Timbiras, Brazil
Current Conditions -  °F | °C
As of 6:00 PM on Sunday 23 Nov 2014 (Local Time) from SBTE Reporting Station
Broken Clouds Broken Clouds  
Wind Chill: 93°   Ceiling: 10000
Heat Index: 96°   Visibility: 6mi
Dew Point: 66°   Wind: 3mph
Humidity: 41%   Direction: 330°NNW
Pressure: 29.77"   Gusts: NA
Location:  4.26°S, 43.94°W
Report Text: SBTE 232100Z 33003KT 9999 SCT030 BKN100 34/19 Q1008
Loading
Personal Weather Stations






























Interactive Weather Map New forecast layout! Learn more

10-Day Weather Forecast

Advertisements
Track Severe Weather on mobile